createdAt,value
2023-03-22T00:01:48.955Z,12.57
2023-03-22T00:04:15.623Z,12.52
2023-03-22T00:06:44.649Z,12.42
2023-03-22T00:09:11.402Z,12.34
2023-03-22T00:11:42.930Z,12.32
2023-03-22T00:14:12.006Z,12.23
2023-03-22T00:16:38.557Z,12.18
2023-03-22T00:19:07.797Z,12.19
2023-03-22T00:21:34.433Z,12.20
2023-03-22T00:24:03.984Z,12.21
2023-03-22T00:26:30.574Z,12.14
2023-03-22T00:28:57.184Z,12.11
2023-03-22T00:31:23.897Z,12.02
2023-03-22T00:33:50.648Z,11.97
2023-03-22T00:36:17.214Z,11.96
2023-03-22T00:38:44.615Z,11.93
2023-03-22T00:41:11.895Z,11.78
2023-03-22T00:43:38.527Z,11.68
2023-03-22T00:46:05.841Z,11.76
2023-03-22T00:48:35.209Z,11.76
2023-03-22T00:51:01.910Z,11.76
2023-03-22T00:53:33.322Z,11.70
2023-03-22T00:56:02.290Z,11.61
2023-03-22T00:58:35.224Z,11.58
2023-03-22T01:01:02.050Z,11.56
2023-03-22T01:03:29.161Z,11.49
2023-03-22T01:05:58.156Z,11.51
2023-03-22T01:08:24.997Z,11.58
2023-03-22T01:10:51.735Z,11.47
2023-03-22T01:13:20.737Z,11.50
2023-03-22T01:15:50.230Z,11.59
2023-03-22T01:18:17.433Z,11.54
2023-03-22T01:20:48.561Z,11.45
2023-03-22T01:23:16.079Z,11.48
2023-03-22T01:25:45.224Z,11.55
2023-03-22T01:28:12.006Z,11.57
2023-03-22T01:30:40.039Z,11.41
2023-03-22T01:33:08.198Z,11.27
2023-03-22T01:35:36.095Z,10.98
2023-03-22T01:38:09.128Z,10.89
2023-03-22T01:40:44.226Z,10.70
2023-03-22T01:43:15.763Z,10.65
2023-03-22T01:45:46.049Z,10.70
2023-03-22T01:48:14.459Z,10.80
2023-03-22T01:50:44.507Z,10.84
2023-03-22T01:53:11.351Z,10.92
2023-03-22T01:55:38.405Z,10.97
2023-03-22T01:58:16.031Z,11.01
2023-03-22T02:00:48.628Z,11.07
2023-03-22T02:03:42.700Z,11.01
2023-03-22T02:06:11.626Z,10.93
2023-03-22T02:08:40.824Z,10.89
2023-03-22T02:11:22.105Z,10.81
2023-03-22T02:14:09.533Z,10.73
2023-03-22T02:17:13.491Z,10.69
2023-03-22T02:19:47.523Z,10.71
2023-03-22T02:22:14.595Z,10.71
2023-03-22T02:24:46.255Z,10.70
2023-03-22T02:27:21.246Z,10.71
2023-03-22T02:29:54.360Z,10.67
2023-03-22T02:33:00.226Z,10.58
2023-03-22T02:35:33.820Z,10.55
2023-03-22T02:38:19.451Z,10.53
2023-03-22T02:40:58.886Z,10.34
2023-03-22T02:43:30.911Z,10.24
2023-03-22T02:46:20.022Z,10.23
2023-03-22T02:48:54.527Z,10.28
2023-03-22T02:51:22.070Z,10.22
2023-03-22T02:53:52.202Z,10.18
2023-03-22T02:56:18.910Z,10.30
2023-03-22T02:58:46.859Z,10.25
2023-03-22T03:01:15.412Z,10.30
2023-03-22T03:03:48.558Z,10.34
2023-03-22T03:06:20.167Z,10.34
2023-03-22T03:08:51.357Z,10.47
2023-03-22T03:11:18.221Z,10.38
2023-03-22T03:13:48.090Z,10.36
2023-03-22T03:16:23.504Z,10.47
2023-03-22T03:18:50.597Z,10.54
2023-03-22T03:21:20.582Z,10.54
2023-03-22T03:23:49.930Z,10.55
2023-03-22T03:26:19.860Z,10.56
2023-03-22T03:28:55.479Z,10.55
2023-03-22T03:31:28.292Z,10.60
2023-03-22T03:34:00.303Z,10.58
2023-03-22T03:36:27.064Z,10.49
2023-03-22T03:38:56.023Z,10.47
2023-03-22T03:41:28.538Z,10.47
2023-03-22T03:43:56.282Z,10.39
2023-03-22T03:46:23.043Z,10.18
2023-03-22T03:48:50.256Z,10.05
2023-03-22T03:51:19.274Z,9.84
2023-03-22T03:53:46.127Z,9.93
2023-03-22T03:56:12.944Z,9.97
2023-03-22T03:58:44.241Z,9.86
2023-03-22T04:01:11.277Z,9.84
2023-03-22T04:03:55.373Z,9.92
2023-03-22T04:06:44.982Z,9.92
2023-03-22T04:09:17.185Z,9.85
2023-03-22T04:11:50.058Z,9.86
2023-03-22T04:14:17.114Z,9.81
2023-03-22T04:16:46.987Z,9.88
2023-03-22T04:19:18.806Z,9.96
2023-03-22T04:21:48.218Z,10.07
2023-03-22T04:24:15.798Z,10.09
2023-03-22T04:26:45.202Z,10.03
2023-03-22T04:29:51.403Z,9.95
2023-03-22T04:32:43.795Z,9.94
2023-03-22T04:35:13.194Z,9.88
2023-03-22T04:37:43.181Z,9.86
2023-03-22T04:40:21.160Z,9.85
2023-03-22T04:43:03.031Z,9.82
2023-03-22T04:45:46.226Z,9.78
2023-03-22T04:48:22.325Z,9.79
2023-03-22T04:50:54.574Z,9.82
2023-03-22T04:53:27.597Z,9.84
2023-03-22T04:55:59.137Z,9.89
2023-03-22T04:58:30.905Z,9.91
2023-03-22T05:00:58.503Z,9.92
2023-03-22T05:03:25.129Z,9.87
2023-03-22T05:05:56.385Z,9.91
2023-03-22T05:08:27.461Z,9.89
2023-03-22T05:10:54.471Z,9.89
2023-03-22T05:13:37.468Z,9.92
2023-03-22T05:16:43.029Z,9.82
2023-03-22T05:19:14.443Z,9.79
2023-03-22T05:22:04.221Z,9.86
2023-03-22T05:25:14.820Z,9.94
2023-03-22T05:28:01.854Z,9.95
2023-03-22T05:30:49.281Z,10.03
2023-03-22T05:33:51.809Z,10.17
2023-03-22T05:36:21.105Z,10.29
2023-03-22T05:39:09.943Z,10.43
2023-03-22T05:41:37.118Z,10.42
2023-03-22T05:44:06.743Z,10.38
2023-03-22T05:46:35.993Z,10.34
2023-03-22T05:49:21.532Z,10.45
2023-03-22T05:51:48.928Z,10.60
2023-03-22T05:54:16.763Z,10.77
2023-03-22T05:56:49.122Z,10.84
2023-03-22T05:59:18.468Z,10.88
2023-03-22T06:01:45.179Z,10.96
2023-03-22T06:04:18.744Z,11.05
2023-03-22T06:07:04.224Z,11.19
2023-03-22T06:09:41.921Z,11.24
2023-03-22T06:12:16.147Z,11.28
2023-03-22T06:14:46.756Z,11.44
2023-03-22T06:17:22.063Z,11.47
2023-03-22T06:19:48.917Z,11.48
2023-03-22T06:22:16.414Z,11.54
2023-03-22T06:24:44.035Z,11.61
2023-03-22T06:27:16.518Z,11.72
2023-03-22T06:29:43.240Z,11.75
2023-03-22T06:32:12.359Z,11.81
2023-03-22T06:34:39.405Z,12.02
2023-03-22T06:37:07.134Z,12.17
2023-03-22T06:39:39.651Z,12.35
2023-03-22T06:42:12.473Z,12.53
2023-03-22T06:44:42.350Z,12.69
2023-03-22T06:47:14.479Z,13.01
2023-03-22T06:49:47.633Z,13.21
2023-03-22T06:52:21.901Z,13.39
2023-03-22T06:54:48.731Z,13.53
2023-03-22T06:57:15.768Z,13.48
2023-03-22T06:59:42.353Z,13.40
2023-03-22T07:02:12.868Z,13.56
2023-03-22T07:04:43.408Z,13.80
2023-03-22T07:07:12.572Z,13.91
2023-03-22T07:09:40.209Z,14.12
2023-03-22T07:12:07.045Z,14.24
2023-03-22T07:14:36.551Z,14.41
2023-03-22T07:17:31.512Z,14.54
2023-03-22T07:19:58.116Z,14.68
2023-03-22T07:22:27.380Z,14.76
2023-03-22T07:24:58.260Z,14.91
2023-03-22T07:27:28.616Z,15.10
2023-03-22T07:29:58.545Z,15.18
2023-03-22T07:32:25.447Z,15.32
2023-03-22T07:35:07.693Z,15.43
2023-03-22T07:37:36.997Z,15.45
2023-03-22T07:40:08.795Z,15.48
2023-03-22T07:42:36.268Z,15.64
2023-03-22T07:45:09.185Z,15.65
2023-03-22T07:47:45.018Z,15.71
2023-03-22T07:50:31.649Z,15.60
2023-03-22T07:53:00.434Z,15.82
2023-03-22T07:55:27.182Z,15.81
2023-03-22T07:57:56.589Z,15.75
2023-03-22T08:00:23.576Z,15.98
2023-03-22T08:03:01.817Z,16.15
2023-03-22T08:05:51.802Z,15.95
2023-03-22T08:08:19.891Z,15.88
2023-03-22T08:10:53.010Z,15.72
2023-03-22T08:13:20.162Z,15.83
2023-03-22T08:15:49.449Z,15.74
2023-03-22T08:18:19.305Z,15.64
2023-03-22T08:20:52.411Z,15.90
2023-03-22T08:23:26.433Z,15.75
2023-03-22T08:26:17.905Z,15.57
2023-03-22T08:28:47.854Z,15.47
2023-03-22T08:31:15.541Z,15.36
2023-03-22T08:33:44.306Z,15.17
2023-03-22T08:36:12.871Z,15.24
2023-03-22T08:38:46.305Z,15.22
2023-03-22T08:41:18.746Z,15.05
2023-03-22T08:43:50.944Z,14.97
2023-03-22T08:46:17.793Z,15.02
2023-03-22T08:48:54.260Z,15.09
2023-03-22T08:51:31.265Z,15.46
2023-03-22T08:54:12.549Z,15.59
2023-03-22T08:56:59.320Z,15.62
2023-03-22T08:59:54.472Z,15.66
2023-03-22T09:02:38.100Z,16.17
2023-03-22T09:05:04.986Z,16.29
2023-03-22T09:07:32.302Z,16.39
2023-03-22T09:10:16.934Z,16.59
2023-03-22T09:12:46.034Z,16.22
2023-03-22T09:15:12.775Z,16.38
2023-03-22T09:17:45.568Z,16.31
2023-03-22T09:20:13.419Z,16.24
2023-03-22T09:22:45.960Z,16.60
2023-03-22T09:25:15.619Z,16.93
2023-03-22T09:27:47.452Z,17.24
2023-03-22T09:30:14.388Z,17.41
2023-03-22T09:32:41.519Z,17.57
2023-03-22T09:35:10.937Z,16.95
2023-03-22T09:37:53.489Z,16.66
2023-03-22T09:40:21.390Z,16.53
2023-03-22T09:42:52.505Z,16.49
2023-03-22T09:45:21.277Z,16.33
2023-03-22T09:47:49.271Z,16.48
2023-03-22T09:50:22.095Z,16.74
2023-03-22T09:52:48.944Z,16.65
2023-03-22T09:55:19.521Z,16.40
2023-03-22T09:57:48.947Z,16.28
2023-03-22T10:00:21.024Z,16.18
2023-03-22T10:03:06.265Z,16.29
2023-03-22T10:05:38.946Z,16.41
2023-03-22T10:08:14.525Z,16.29
2023-03-22T10:10:42.154Z,16.15
2023-03-22T10:13:24.198Z,15.88
2023-03-22T10:15:52.316Z,15.59
2023-03-22T10:18:25.820Z,15.61
2023-03-22T10:20:58.404Z,15.93
2023-03-22T10:23:28.201Z,15.91
2023-03-22T10:25:54.923Z,15.76
2023-03-22T10:28:22.642Z,15.84
2023-03-22T10:30:53.697Z,16.02
2023-03-22T10:33:39.777Z,16.16
2023-03-22T10:36:10.349Z,16.34
2023-03-22T10:38:37.594Z,16.30
2023-03-22T10:41:06.791Z,16.24
2023-03-22T10:43:36.901Z,16.32
2023-03-22T10:46:07.784Z,16.32
2023-03-22T10:48:44.730Z,16.31
2023-03-22T10:51:12.138Z,16.32
2023-03-22T10:53:40.016Z,16.07
2023-03-22T10:56:10.630Z,15.92
2023-03-22T10:58:37.433Z,15.69
2023-03-22T11:01:08.483Z,15.80
2023-03-22T11:03:35.261Z,15.95
2023-03-22T11:06:22.166Z,16.15
2023-03-22T11:08:48.811Z,16.26
2023-03-22T11:11:31.716Z,16.06
2023-03-22T11:14:08.494Z,16.04
2023-03-22T11:16:47.693Z,15.96
2023-03-22T11:19:15.265Z,15.80
2023-03-22T11:21:44.571Z,15.84
2023-03-22T11:24:11.568Z,15.80
2023-03-22T11:26:40.905Z,15.93
2023-03-22T11:29:17.082Z,15.93
2023-03-22T11:31:56.140Z,15.99
2023-03-22T11:34:27.102Z,16.05
2023-03-22T11:36:57.184Z,16.11
2023-03-22T11:39:30.527Z,16.20
2023-03-22T11:41:58.887Z,16.62
2023-03-22T11:44:26.267Z,16.73
2023-03-22T11:46:55.027Z,17.01
2023-03-22T11:49:27.068Z,17.07
2023-03-22T11:51:54.545Z,17.10
2023-03-22T11:54:32.246Z,17.23
2023-03-22T11:57:00.064Z,17.60
2023-03-22T11:59:28.737Z,17.56
2023-03-22T12:01:58.110Z,18.11
2023-03-22T12:04:30.498Z,18.86
2023-03-22T12:06:58.634Z,19.13
2023-03-22T12:09:25.855Z,19.23
2023-03-22T12:11:53.770Z,19.42
2023-03-22T12:14:31.518Z,19.51
2023-03-22T12:17:01.329Z,19.54
2023-03-22T12:19:41.653Z,19.33
2023-03-22T12:22:12.072Z,19.16
2023-03-22T12:24:39.231Z,19.25
2023-03-22T12:27:24.489Z,19.66
2023-03-22T12:29:59.653Z,19.80
2023-03-22T12:32:41.952Z,19.66
2023-03-22T12:35:17.528Z,19.90
2023-03-22T12:37:53.688Z,19.85
2023-03-22T12:40:22.779Z,19.57
2023-03-22T12:42:55.566Z,19.79
2023-03-22T12:45:25.004Z,20.21
2023-03-22T12:47:54.026Z,20.12
2023-03-22T12:50:25.124Z,20.42
2023-03-22T12:52:59.500Z,20.50
2023-03-22T12:55:27.765Z,20.37
2023-03-22T12:57:57.649Z,20.05
2023-03-22T13:00:27.683Z,19.68
2023-03-22T13:03:15.168Z,19.52
2023-03-22T13:05:43.884Z,19.78
2023-03-22T13:08:13.066Z,19.94
2023-03-22T13:10:48.674Z,19.99
2023-03-22T13:13:24.254Z,20.11
2023-03-22T13:15:54.309Z,20.63
2023-03-22T13:18:33.122Z,20.43
2023-03-22T13:21:10.312Z,20.24
2023-03-22T13:23:39.437Z,20.01
2023-03-22T13:26:09.793Z,20.10
2023-03-22T13:28:39.047Z,20.76
2023-03-22T13:31:17.284Z,21.16
2023-03-22T13:33:45.974Z,21.84
2023-03-22T13:36:29.563Z,21.91
2023-03-22T13:38:57.332Z,21.92
2023-03-22T13:41:38.017Z,21.64
2023-03-22T13:44:41.757Z,20.78
2023-03-22T13:47:09.560Z,20.48
2023-03-22T13:49:49.649Z,20.49
2023-03-22T13:52:46.230Z,20.33
2023-03-22T13:55:38.686Z,19.80
2023-03-22T13:59:05.668Z,19.78
2023-03-22T14:01:44.418Z,19.72
2023-03-22T14:09:00.167Z,19.98
2023-03-22T14:11:44.346Z,20.10
2023-03-22T14:14:13.356Z,20.15
2023-03-22T14:17:00.488Z,19.94
